weather.gov     
National Weather Service

Terminal Aerodrome Forecast
NWS Homepage
This page is being discontinued on March 12, 2014.
The same data is available at this site. Please update your bookmarks.
Thank you, and we apologize for the inconvenience.
Please send an email to SR-SRH.Webmaster@noaa.gov with any concerns.


Current Version
Previous Version:    01  02  03  04  05  06  07  08  09  10  11  12  13  14  15  16  17  18  19  20  21  22  23  24  25  26  27  
[Printable]
897
FTUS44 KSJT 311800 AAA
TAFABI
TAF AMD
KABI 311810Z 3118/0118 15010KT 4SM -RA BR OVC009
     FM312000 15011KT 3SM -RA BR OVC008
     FM010100 17007KT 4SM BR OVC004
     FM010900 21007KT P6SM BKN008
     FM011200 23010KT P6SM BKN015
     FM011500 33012KT P6SM BKN025=


U.S. Dept. of Commerce
NOAA National Weather Service
1325 East West Highway
Silver Spring, MD 20910
E-mail: w-nws.webmaster@noaa.gov
Page last modified: May 16, 2007
NATIONAL WEATHER SERVICE: for Safety, for Work, for Fun - FOR LIFE